Time;durP1;ratioP1;P1;durP2;ratioP2;P2;SDS_P1;SDS_P2;PMS_P1;PMS_P2;Temp;Humidity;BMP_temperature;BMP_pressure;BME280_temperature;BME280_humidity;BME280_pressure;Samples;Min_cycle;Max_cycle;Signal;HPM_P1;HPM_P2
2022/05/19 18:11:53;;;;;;;;;;;17.10;48.60;;;;;;5107495;27;19924;-87
2022/05/19 18:19:47;;;;;;;;;;;16.70;50.50;;;;;;5107226;28;19927;-86
2022/05/19 18:22:14;;;;;;;;;;;16.80;50.90;;;;;;5106892;28;19912;-87
2022/05/19 18:24:40;;;;;;;;;;;16.90;51.10;;;;;;5105245;28;20275;-90
2022/05/19 18:27:06;;;;;;;;;;;16.90;51.30;;;;;;5110801;28;19912;-90
2022/05/19 18:29:34;;;;;;;;;;;17.00;51.40;;;;;;5109375;28;19912;-90
2022/05/19 18:32:00;;;;;;;;;;;17.00;51.50;;;;;;5107013;28;19916;-90
2022/05/19 18:34:27;;;;;;;;;;;17.00;51.50;;;;;;5104952;28;19913;-90
2022/05/19 18:36:52;;;;;;;;;;;17.10;51.50;;;;;;5108205;28;20010;-90
2022/05/19 18:39:18;;;;;;;;;;;17.10;51.50;;;;;;5109415;28;20344;-90
2022/05/19 18:47:12;;;;;;;;;;;17.10;51.50;;;;;;5110562;28;20314;-89
2022/05/19 18:49:38;;;;;;;;;;;17.10;51.50;;;;;;5108297;28;19912;-93
2022/05/19 18:52:05;;;;;;;;;;;17.10;51.60;;;;;;5133935;27;20288;-91
2022/05/19 18:54:30;;;;;;;;;;;17.00;52.10;;;;;;5104912;28;19912;-91
2022/05/19 18:56:56;;;;;;;;;;;17.00;51.50;;;;;;5108241;28;19912;-92
2022/05/19 18:59:21;;;;;;;;;;;17.00;51.50;;;;;;5108186;28;20011;-91
2022/05/19 19:01:47;;;;;;;;;;;17.00;51.60;;;;;;5108124;28;19912;-93
2022/05/19 19:04:13;;;;;;;;;;;17.00;51.60;;;;;;5107013;28;19912;-89
2022/05/19 19:06:39;;;;;;;;;;;16.90;51.70;;;;;;5110918;28;20003;-90
2022/05/19 19:09:04;;;;;;;;;;;16.80;51.60;;;;;;5110378;28;20337;-89
2022/05/19 19:11:31;;;;;;;;;;;16.80;51.70;;;;;;5101665;28;20014;-90
2022/05/19 19:13:58;;;;;;;;;;;16.70;51.70;;;;;;5139043;27;19912;-90
2022/05/19 19:16:25;;;;;;;;;;;16.60;51.70;;;;;;5110347;28;19961;-90
2022/05/19 19:18:52;;;;;;;;;;;16.60;51.80;;;;;;5108277;28;19995;-89
2022/05/19 19:21:18;;;;;;;;;;;16.50;51.80;;;;;;5106012;28;19920;-90
2022/05/19 19:23:45;;;;;;;;;;;16.50;51.70;;;;;;5091346;28;19938;-91
2022/05/19 19:26:11;;;;;;;;;;;16.40;51.80;;;;;;5094808;28;19920;-90
2022/05/19 19:28:36;;;;;;;;;;;16.30;51.80;;;;;;5094411;28;20037;-90
2022/05/19 19:31:02;;;;;;;;;;;16.30;51.90;;;;;;5091215;28;20009;-90
2022/05/19 19:33:27;;;;;;;;;;;16.20;51.90;;;;;;5095551;28;19912;-89
2022/05/19 19:35:53;;;;;;;;;;;16.20;52.00;;;;;;5092179;28;19912;-90
2022/05/19 19:38:19;;;;;;;;;;;16.10;52.00;;;;;;5096658;28;19920;-90
2022/05/19 19:40:44;;;;;;;;;;;16.00;51.90;;;;;;5096479;28;19912;-90
2022/05/19 19:43:10;;;;;;;;;;;16.00;52.00;;;;;;5096282;28;20064;-90
2022/05/19 19:45:37;;;;;;;;;;;15.90;52.10;;;;;;5095353;28;20254;-90
2022/05/19 19:48:03;;;;;;;;;;;15.90;52.10;;;;;;5096509;28;19916;-90
2022/05/19 19:53:14;;;;;;;;;;;15.80;52.10;;;;;;5080918;28;19915;-90
2022/05/19 19:55:40;;;;;;;;;;;15.70;52.10;;;;;;5076325;28;20317;-90
2022/05/19 19:58:06;;;;;;;;;;;15.70;52.20;;;;;;5105315;28;19999;-89
2022/05/19 20:00:32;;;;;;;;;;;15.60;52.20;;;;;;5077515;28;19948;-92
2022/05/19 20:02:57;;;;;;;;;;;15.60;52.20;;;;;;5076179;28;19908;-89
2022/05/19 20:05:23;;;;;;;;;;;15.50;52.20;;;;;;5076115;28;19958;-90
2022/05/19 20:07:50;;;;;;;;;;;15.50;52.40;;;;;;5075132;28;20315;-90
2022/05/19 20:10:18;;;;;;;;;;;15.40;52.40;;;;;;5076277;28;19960;-90
2022/05/19 20:12:44;;;;;;;;;;;15.40;52.40;;;;;;5076301;28;20033;-92
2022/05/19 20:15:10;;;;;;;;;;;15.30;52.40;;;;;;5075928;28;19962;-90
2022/05/19 20:17:36;;;;;;;;;;;15.30;52.50;;;;;;5087228;28;19917;-92
2022/05/19 20:20:06;;;;;;;;;;;15.20;52.40;;;;;;5115318;28;20379;-89
2022/05/19 20:22:32;;;;;;;;;;;15.20;52.40;;;;;;5115127;28;19915;-90
2022/05/19 20:24:58;;;;;;;;;;;15.20;52.40;;;;;;5115269;28;19934;-89
2022/05/19 20:27:23;;;;;;;;;;;15.10;52.40;;;;;;5094982;28;19915;-90
2022/05/19 20:29:49;;;;;;;;;;;15.10;52.40;;;;;;5096035;28;20061;-90
2022/05/19 20:32:14;;;;;;;;;;;15.10;52.50;;;;;;5094574;28;20272;-90
2022/05/19 20:34:40;;;;;;;;;;;15.00;52.50;;;;;;5093495;28;19908;-90
2022/05/19 20:37:06;;;;;;;;;;;15.00;52.50;;;;;;5104076;28;20432;-90
2022/05/19 20:39:31;;;;;;;;;;;14.90;52.60;;;;;;5095712;28;19912;-91
2022/05/19 20:41:58;;;;;;;;;;;14.90;52.60;;;;;;5094451;28;19930;-90
2022/05/19 20:44:24;;;;;;;;;;;14.80;52.60;;;;;;5078264;28;19909;-90
2022/05/19 20:46:50;;;;;;;;;;;14.80;52.60;;;;;;5075214;28;20273;-91
2022/05/19 20:49:16;;;;;;;;;;;14.80;52.70;;;;;;5107912;28;19939;-91
